Time;durP1;ratioP1;P1;durP2;ratioP2;P2;SDS_P1;SDS_P2;PMS_P1;PMS_P2;Temp;Humidity;BMP_temperature;BMP_pressure;BME280_temperature;BME280_humidity;BME280_pressure;Samples;Min_cycle;Max_cycle;Signal;HPM_P1;HPM_P2
2023/11/07 00:01:44;;;;;;;5.40;2.33;;;10.60;99.90;;;;;;5078186;28;20043;-87
2023/11/07 00:04:12;;;;;;;6.72;2.58;;;10.70;99.90;;;;;;5094234;28;20043;-86
2023/11/07 00:06:41;;;;;;;6.03;2.90;;;10.70;99.90;;;;;;5074119;28;20020;-88
2023/11/07 00:09:07;;;;;;;5.55;2.67;;;10.70;99.90;;;;;;5060959;28;20051;-86
2023/11/07 00:11:34;;;;;;;5.65;2.47;;;10.70;99.90;;;;;;5073967;28;20036;-86
2023/11/07 00:13:59;;;;;;;7.22;2.67;;;10.70;99.90;;;;;;5074385;28;20043;-87
2023/11/07 00:16:27;;;;;;;7.70;3.17;;;10.70;99.90;;;;;;5073957;28;20115;-86
2023/11/07 00:18:53;;;;;;;5.15;2.50;;;10.70;99.90;;;;;;5075081;28;20021;-87
2023/11/07 00:21:19;;;;;;;6.00;3.05;;;10.70;99.90;;;;;;5090980;28;20044;-86
2023/11/07 00:23:44;;;;;;;6.60;3.00;;;10.70;99.90;;;;;;5093877;28;20032;-86
2023/11/07 00:26:10;;;;;;;5.95;2.83;;;10.70;99.90;;;;;;5090533;28;20035;-86
2023/11/07 00:28:39;;;;;;;4.93;2.35;;;10.70;99.90;;;;;;5084542;28;20020;-86
2023/11/07 00:31:04;;;;;;;7.07;2.97;;;10.70;99.90;;;;;;5068761;28;20028;-86
2023/11/07 00:33:30;;;;;;;7.93;3.05;;;10.70;99.90;;;;;;5073566;28;20388;-88
2023/11/07 00:35:56;;;;;;;6.97;2.92;;;10.70;99.90;;;;;;5056811;28;20023;-87
2023/11/07 00:38:21;;;;;;;7.93;2.55;;;10.70;99.90;;;;;;5073470;28;20025;-86
2023/11/07 00:40:48;;;;;;;6.65;2.65;;;10.70;99.90;;;;;;5099314;28;20060;-87
2023/11/07 00:43:14;;;;;;;5.13;2.72;;;10.70;99.90;;;;;;5092958;28;20039;-86
2023/11/07 00:45:42;;;;;;;6.75;2.55;;;10.60;99.90;;;;;;5056431;28;20028;-87
2023/11/07 00:48:07;;;;;;;5.30;2.55;;;10.70;99.90;;;;;;5087940;28;20093;-87
2023/11/07 00:50:34;;;;;;;6.78;2.40;;;10.70;99.90;;;;;;5076828;28;20107;-87
2023/11/07 00:52:59;;;;;;;8.48;2.55;;;10.60;99.90;;;;;;5095098;28;20043;-86
2023/11/07 00:55:25;;;;;;;7.45;2.67;;;10.70;99.90;;;;;;5076802;28;20028;-87
2023/11/07 00:57:51;;;;;;;6.03;2.33;;;10.60;99.90;;;;;;5093529;28;20378;-87
2023/11/07 01:00:17;;;;;;;7.25;2.60;;;10.60;99.90;;;;;;5075365;28;20116;-86
2023/11/07 01:02:42;;;;;;;4.47;2.00;;;10.60;99.90;;;;;;5075750;28;20119;-86
2023/11/07 01:05:08;;;;;;;6.88;2.75;;;10.60;99.90;;;;;;5076571;28;20125;-87
2023/11/07 01:07:34;;;;;;;4.88;2.22;;;10.60;99.90;;;;;;5094830;28;20097;-87
2023/11/07 01:10:00;;;;;;;8.00;2.80;;;10.60;99.90;;;;;;5093476;28;20062;-88
2023/11/07 01:12:27;;;;;;;8.52;2.38;;;10.60;99.90;;;;;;5094128;28;20082;-87
2023/11/07 01:14:53;;;;;;;4.40;2.05;;;10.60;99.90;;;;;;5060579;28;20032;-87
2023/11/07 01:17:19;;;;;;;5.65;2.30;;;10.60;99.90;;;;;;5095324;28;20035;-87
2023/11/07 01:19:45;;;;;;;5.90;2.00;;;10.50;99.90;;;;;;5110814;28;20029;-88
2023/11/07 01:22:10;;;;;;;4.63;2.38;;;10.60;99.90;;;;;;5097628;28;20024;-86
2023/11/07 01:24:36;;;;;;;5.13;2.80;;;10.60;99.90;;;;;;5097375;28;20012;-89
2023/11/07 01:27:02;;;;;;;5.63;2.22;;;10.60;99.90;;;;;;5096631;28;20055;-86
2023/11/07 01:29:27;;;;;;;6.45;2.45;;;10.50;99.90;;;;;;5079553;28;20483;-87
2023/11/07 01:31:53;;;;;;;4.07;2.10;;;10.50;99.90;;;;;;5076233;28;20036;-86
2023/11/07 01:34:19;;;;;;;5.00;2.35;;;10.50;99.90;;;;;;5092987;28;20032;-86
2023/11/07 01:36:44;;;;;;;5.43;1.85;;;10.50;99.90;;;;;;5057844;28;20483;-86
2023/11/07 01:39:10;;;;;;;5.13;2.35;;;10.50;99.90;;;;;;5084856;28;20373;-87
2023/11/07 01:41:35;;;;;;;7.55;2.05;;;10.50;99.90;;;;;;5076868;28;20255;-87
2023/11/07 01:44:01;;;;;;;5.00;2.05;;;10.50;99.90;;;;;;5056601;28;20123;-86
2023/11/07 01:46:27;;;;;;;5.43;2.42;;;10.50;99.90;;;;;;5080145;28;20047;-87
2023/11/07 01:48:56;;;;;;;5.47;2.45;;;10.50;99.90;;;;;;5084783;28;20044;-87
2023/11/07 01:51:24;;;;;;;5.47;2.05;;;10.50;99.90;;;;;;5060933;28;20073;-86
2023/11/07 01:53:52;;;;;;;5.32;2.15;;;10.50;99.90;;;;;;5092649;28;20028;-86
2023/11/07 01:56:23;;;;;;;4.90;2.03;;;10.50;99.90;;;;;;5086664;28;20043;-86
2023/11/07 01:58:49;;;;;;;4.90;1.85;;;10.50;99.90;;;;;;5093927;28;20020;-86
2023/11/07 02:01:14;;;;;;;5.30;1.85;;;10.50;99.90;;;;;;5073705;28;20036;-86
2023/11/07 02:03:40;;;;;;;7.55;2.55;;;10.50;99.90;;;;;;5064211;28;20028;-86
2023/11/07 02:06:11;;;;;;;5.50;2.03;;;10.50;99.90;;;;;;5073186;28;20029;-87
2023/11/07 02:08:37;;;;;;;5.72;2.30;;;10.50;99.90;;;;;;5059224;28;20455;-86
2023/11/07 02:11:04;;;;;;;3.80;2.00;;;10.50;99.90;;;;;;5072003;28;20124;-86
2023/11/07 02:13:29;;;;;;;4.28;2.05;;;10.50;99.90;;;;;;5077389;28;20060;-88
2023/11/07 02:15:55;;;;;;;4.40;2.10;;;10.50;99.90;;;;;;5077738;28;20059;-87
2023/11/07 02:18:21;;;;;;;5.80;1.88;;;10.50;99.90;;;;;;5059733;28;20048;-86
2023/11/07 02:20:46;;;;;;;4.35;1.88;;;10.50;99.90;;;;;;5078747;28;20035;-87
2023/11/07 02:23:34;;;;;;;4.65;1.73;;;10.50;99.90;;;;;;5076084;28;20056;-87
2023/11/07 02:26:00;;;;;;;7.53;2.60;;;10.50;99.90;;;;;;5113053;28;20028;-87
2023/11/07 02:28:28;;;;;;;5.10;2.35;;;10.50;99.90;;;;;;5095386;28;20024;-87
2023/11/07 02:30:57;;;;;;;4.85;2.25;;;10.50;99.90;;;;;;5095778;28;20126;-86
2023/11/07 02:33:23;;;;;;;5.28;2.33;;;10.50;99.90;;;;;;5069468;28;20364;-86
2023/11/07 02:35:49;;;;;;;5.78;2.03;;;10.40;99.90;;;;;;5082512;28;20051;-87
2023/11/07 02:38:16;;;;;;;4.18;2.13;;;10.40;99.90;;;;;;5086909;28;20414;-87
2023/11/07 02:40:42;;;;;;;6.45;2.03;;;10.40;99.90;;;;;;5096061;28;20024;-86
2023/11/07 02:43:08;;;;;;;6.25;2.22;;;10.50;99.90;;;;;;5095981;28;20474;-87
2023/11/07 02:45:35;;;;;;;3.80;1.92;;;10.50;99.90;;;;;;5090449;28;20043;-86
2023/11/07 02:48:02;;;;;;;3.33;1.83;;;10.40;99.90;;;;;;5077271;28;20044;-87
2023/11/07 02:50:28;;;;;;;4.50;2.38;;;10.40;99.90;;;;;;5097592;28;20028;-87
2023/11/07 02:52:53;;;;;;;6.13;2.08;;;10.40;99.90;;;;;;5115216;28;20050;-88
2023/11/07 02:55:19;;;;;;;6.28;2.17;;;10.40;99.90;;;;;;5117892;28;20032;-86
2023/11/07 02:57:45;;;;;;;4.28;1.98;;;10.40;99.90;;;;;;5097772;28;20022;-86
2023/11/07 03:00:12;;;;;;;5.80;2.33;;;10.40;99.90;;;;;;5097023;28;20027;-87
2023/11/07 03:02:39;;;;;;;6.38;1.80;;;10.40;99.90;;;;;;5095407;28;20024;-87
2023/11/07 03:05:06;;;;;;;3.42;2.05;;;10.40;99.90;;;;;;5095746;28;20024;-87
2023/11/07 03:07:33;;;;;;;4.15;1.58;;;10.40;99.90;;;;;;5096790;28;20051;-87
2023/11/07 03:10:00;;;;;;;6.35;2.05;;;10.40;99.90;;;;;;5092314;28;20036;-87
2023/11/07 03:12:28;;;;;;;5.90;2.20;;;10.40;99.90;;;;;;5098751;28;20047;-87
2023/11/07 03:14:54;;;;;;;4.53;2.05;;;10.40;99.90;;;;;;5075289;28;20032;-86
2023/11/07 03:17:20;;;;;;;6.13;2.35;;;10.40;99.90;;;;;;5060772;28;20518;-86
2023/11/07 03:19:51;;;;;;;4.43;1.85;;;10.50;99.90;;;;;;5078524;28;20028;-86
2023/11/07 03:22:20;;;;;;;5.43;2.15;;;10.50;99.90;;;;;;5079668;28;20035;-86
2023/11/07 03:24:49;;;;;;;4.95;1.85;;;10.50;99.90;;;;;;5092183;28;20385;-87
2023/11/07 03:27:15;;;;;;;5.28;1.98;;;10.50;99.90;;;;;;5081734;28;20021;-87
2023/11/07 03:29:42;;;;;;;5.32;2.10;;;10.50;99.90;;;;;;5095359;28;20055;-87
2023/11/07 03:32:08;;;;;;;4.78;2.13;;;10.50;99.90;;;;;;5096306;28;20031;-87
2023/11/07 03:34:33;;;;;;;4.93;2.05;;;10.50;99.90;;;;;;5094901;28;20032;-87
2023/11/07 03:36:59;;;;;;;8.15;2.47;;;10.50;99.90;;;;;;5094983;28;20419;-87
2023/11/07 03:39:31;;;;;;;6.65;2.30;;;10.50;99.90;;;;;;5095212;28;20059;-87
2023/11/07 03:41:59;;;;;;;3.53;2.25;;;10.50;99.90;;;;;;5090987;28;20043;-87
2023/11/07 03:44:25;;;;;;;5.22;2.15;;;10.50;99.90;;;;;;5076606;28;20434;-86
2023/11/07 03:46:51;;;;;;;6.88;2.38;;;10.50;99.90;;;;;;5094771;28;20059;-87
2023/11/07 03:49:16;;;;;;;6.00;2.20;;;10.50;99.90;;;;;;5095340;28;20083;-87
2023/11/07 03:51:42;;;;;;;5.43;2.15;;;10.50;99.90;;;;;;5094442;28;20031;-86
2023/11/07 03:54:08;;;;;;;5.43;2.30;;;10.50;99.90;;;;;;5094434;28;20460;-87
2023/11/07 03:56:33;;;;;;;7.68;2.50;;;10.50;99.90;;;;;;5091082;28;20036;-87
2023/11/07 03:58:59;;;;;;;5.60;2.40;;;10.50;99.90;;;;;;5081582;28;20116;-87
2023/11/07 04:01:35;;;;;;;6.10;2.40;;;10.60;99.90;;;;;;5074756;28;20064;-87
2023/11/07 04:04:01;;;;;;;6.22;2.53;;;10.60;99.90;;;;;;5094612;28;20077;-87
2023/11/07 04:06:27;;;;;;;5.32;2.38;;;10.60;99.90;;;;;;5094583;28;20369;-86
2023/11/07 04:08:56;;;;;;;6.07;2.40;;;10.60;99.90;;;;;;5078006;28;20031;-86
2023/11/07 04:11:21;;;;;;;5.05;2.55;;;10.60;99.90;;;;;;5094334;28;20028;-87
2023/11/07 04:13:48;;;;;;;5.60;2.35;;;10.60;99.90;;;;;;5078106;28;20369;-87
2023/11/07 04:16:13;;;;;;;6.82;2.63;;;10.60;99.90;;;;;;5094824;28;20032;-86
2023/11/07 04:18:42;;;;;;;5.07;2.40;;;10.60;99.90;;;;;;5083513;28;20074;-87
2023/11/07 04:21:11;;;;;;;6.40;2.22;;;10.60;99.90;;;;;;5090169;28;20096;-86
2023/11/07 04:23:36;;;;;;;6.47;2.80;;;10.60;99.90;;;;;;5116479;28;20102;-88
2023/11/07 04:26:03;;;;;;;5.40;3.38;;;10.60;99.90;;;;;;5087003;28;20029;-89
2023/11/07 04:28:30;;;;;;;6.55;2.97;;;10.60;99.90;;;;;;5116238;28;20024;-87
2023/11/07 04:30:59;;;;;;;5.95;2.60;;;10.60;99.90;;;;;;5108092;28;20020;-87
2023/11/07 04:33:24;;;;;;;6.10;2.80;;;10.60;99.90;;;;;;5100343;28;20101;-87
2023/11/07 04:35:51;;;;;;;5.07;2.67;;;10.60;99.90;;;;;;5095590;28;20471;-87
2023/11/07 04:38:19;;;;;;;5.90;2.72;;;10.60;99.90;;;;;;5094543;28;20372;-87
2023/11/07 04:40:44;;;;;;;6.28;2.90;;;10.60;99.90;;;;;;5093957;28;20111;-87
2023/11/07 04:43:10;;;;;;;6.43;3.13;;;10.60;99.90;;;;;;5057310;28;20479;-87
2023/11/07 04:45:36;;;;;;;7.50;3.15;;;10.50;99.90;;;;;;5093151;28;20460;-87
2023/11/07 04:48:02;;;;;;;11.57;3.15;;;10.60;99.90;;;;;;5061155;28;20060;-87
2023/11/07 04:50:28;;;;;;;9.07;3.53;;;10.50;99.90;;;;;;5091662;28;20032;-87
2023/11/07 04:52:54;;;;;;;4.93;2.70;;;10.50;99.90;;;;;;5094536;28;20027;-87
2023/11/07 04:55:21;;;;;;;5.65;2.85;;;10.60;99.90;;;;;;5085098;28;20028;-87
2023/11/07 04:57:49;;;;;;;7.30;2.90;;;10.60;99.90;;;;;;5089421;28;20031;-88
2023/11/07 05:00:16;;;;;;;6.15;2.67;;;10.50;99.90;;;;;;5081770;28;20017;-88
2023/11/07 05:02:42;;;;;;;6.05;2.97;;;10.50;99.90;;;;;;5072864;28;20025;-87
2023/11/07 05:05:09;;;;;;;6.72;3.00;;;10.60;99.90;;;;;;5072981;28;20028;-86
2023/11/07 05:07:35;;;;;;;5.45;3.10;;;10.50;99.90;;;;;;5080418;28;20020;-87
2023/11/07 05:10:03;;;;;;;6.13;2.70;;;10.60;99.90;;;;;;5093624;28;20059;-86
2023/11/07 05:12:40;;;;;;;;;;;;;;;;;;;;;
2023/11/07 05:15:07;;;;;;;6.47;2.97;;;10.70;99.90;;;;;;5082643;28;20029;-87
2023/11/07 05:17:35;;;;;;;7.57;2.88;;;10.60;99.90;;;;;;5056687;28;20032;-87
2023/11/07 05:20:06;;;;;;;6.65;3.05;;;10.60;99.90;;;;;;5082928;28;20024;-87
2023/11/07 05:22:34;;;;;;;6.40;3.03;;;10.60;99.90;;;;;;5094355;28;20036;-87
2023/11/07 05:25:00;;;;;;;7.53;3.58;;;10.60;99.90;;;;;;5094344;28;20028;-86
2023/11/07 05:27:26;;;;;;;4.97;2.83;;;10.60;99.90;;;;;;5092791;28;20024;-86
2023/11/07 05:29:52;;;;;;;6.30;3.22;;;10.60;99.90;;;;;;5094069;28;20076;-87
2023/11/07 05:32:17;;;;;;;6.13;3.25;;;10.60;99.90;;;;;;5088667;28;20484;-87
2023/11/07 05:34:46;;;;;;;6.68;3.17;;;10.60;99.90;;;;;;5072926;28;20037;-86
2023/11/07 05:37:11;;;;;;;4.93;3.13;;;10.70;99.90;;;;;;5092762;28;20477;-87
2023/11/07 05:39:37;;;;;;;6.38;3.28;;;10.60;99.90;;;;;;5093020;28;20080;-87
2023/11/07 05:42:06;;;;;;;5.72;3.35;;;10.60;99.90;;;;;;5076290;28;20395;-87
2023/11/07 05:44:32;;;;;;;8.15;3.85;;;10.60;99.90;;;;;;5076218;28;20520;-87
2023/11/07 05:46:58;;;;;;;6.82;3.50;;;10.70;99.90;;;;;;5089416;28;20028;-86
2023/11/07 05:49:23;;;;;;;5.95;3.55;;;10.60;99.90;;;;;;5074921;28;20075;-87
2023/11/07 05:51:50;;;;;;;6.47;3.92;;;10.70;99.90;;;;;;5076196;28;20044;-86
2023/11/07 05:54:16;;;;;;;6.50;3.75;;;10.60;99.90;;;;;;5076672;28;20028;-87
2023/11/07 05:56:42;;;;;;;7.45;4.07;;;10.60;99.90;;;;;;5082061;28;20018;-87
2023/11/07 05:59:07;;;;;;;5.13;3.28;;;10.60;99.90;;;;;;5097739;28;20035;-86
2023/11/07 06:01:33;;;;;;;6.07;3.83;;;10.60;99.90;;;;;;5097881;28;20008;-87
2023/11/07 06:03:59;;;;;;;7.03;3.67;;;10.60;99.90;;;;;;5117758;28;20005;-87
2023/11/07 06:06:25;;;;;;;6.10;3.72;;;10.60;99.90;;;;;;5111076;28;20520;-87
2023/11/07 06:08:53;;;;;;;6.18;3.63;;;10.60;99.90;;;;;;5077662;28;20028;-87
2023/11/07 06:11:19;;;;;;;5.55;3.50;;;10.60;99.90;;;;;;5076514;28;20035;-87
2023/11/07 06:13:44;;;;;;;6.50;3.42;;;10.60;99.90;;;;;;5092926;28;20027;-86
2023/11/07 06:16:10;;;;;;;9.60;3.97;;;10.60;99.90;;;;;;5093036;28;20020;-88
2023/11/07 06:18:36;;;;;;;6.93;3.90;;;10.60;99.90;;;;;;5093731;28;20020;-87
2023/11/07 06:21:03;;;;;;;5.57;3.85;;;10.60;99.90;;;;;;5087412;28;20461;-87
2023/11/07 06:23:28;;;;;;;4.97;3.67;;;10.60;99.90;;;;;;5087348;28;20052;-88
2023/11/07 06:25:54;;;;;;;7.05;3.70;;;10.60;99.90;;;;;;5075550;28;20032;-87
2023/11/07 06:28:20;;;;;;;7.30;3.95;;;10.60;99.90;;;;;;5092233;28;20028;-88
2023/11/07 06:30:48;;;;;;;4.95;3.28;;;10.60;99.90;;;;;;5092635;28;20532;-87
2023/11/07 06:33:14;;;;;;;9.35;3.58;;;10.60;99.90;;;;;;5075548;28;20100;-86
2023/11/07 06:35:42;;;;;;;7.53;3.60;;;10.70;99.90;;;;;;5093264;28;20031;-87
2023/11/07 06:38:08;;;;;;;6.32;3.55;;;10.70;99.90;;;;;;5075741;28;20516;-87
2023/11/07 06:40:34;;;;;;;8.15;4.38;;;10.70;99.90;;;;;;5091701;28;20032;-87
2023/11/07 06:43:00;;;;;;;7.13;3.88;;;10.70;99.90;;;;;;5093201;28;20464;-87
2023/11/07 06:45:26;;;;;;;6.60;4.15;;;10.70;99.90;;;;;;5073601;28;20032;-88
2023/11/07 06:47:51;;;;;;;7.00;4.05;;;10.70;99.90;;;;;;5092180;28;20035;-87
2023/11/07 06:50:20;;;;;;;7.50;3.38;;;10.70;99.90;;;;;;5093462;28;20048;-88
2023/11/07 06:52:50;;;;;;;4.53;3.53;;;10.70;99.90;;;;;;5092944;28;20028;-87
2023/11/07 06:55:19;;;;;;;8.25;4.05;;;10.80;99.90;;;;;;5092380;28;20039;-86
2023/11/07 06:57:46;;;;;;;6.32;3.35;;;10.80;99.90;;;;;;5089049;28;20020;-86
2023/11/07 07:00:12;;;;;;;6.20;3.65;;;10.80;99.90;;;;;;5075676;28;20382;-86
2023/11/07 07:02:42;;;;;;;7.82;4.47;;;10.80;99.90;;;;;;5074255;28;20148;-87
2023/11/07 07:05:12;;;;;;;5.30;3.28;;;10.80;99.90;;;;;;5074554;28;20133;-86
2023/11/07 07:07:40;;;;;;;9.17;3.93;;;10.80;99.90;;;;;;5079209;28;20097;-87
2023/11/07 07:10:09;;;;;;;6.40;3.85;;;10.90;99.90;;;;;;5078818;28;20029;-87
2023/11/07 07:12:37;;;;;;;7.30;3.83;;;10.80;99.90;;;;;;5062412;28;20118;-87
2023/11/07 07:15:06;;;;;;;7.70;3.67;;;10.80;99.90;;;;;;5077943;28;20036;-87
2023/11/07 07:17:31;;;;;;;5.60;3.15;;;10.90;99.90;;;;;;5095007;28;20016;-86
2023/11/07 07:19:57;;;;;;;7.22;3.88;;;10.90;99.90;;;;;;5074859;28;20082;-87
2023/11/07 07:22:27;;;;;;;7.85;3.78;;;10.90;99.90;;;;;;5074863;28;20361;-88
2023/11/07 07:25:05;;;;;;;7.55;3.70;;;11.00;99.90;;;;;;5095548;28;20039;-87
2023/11/07 07:27:33;;;;;;;7.50;3.50;;;10.90;99.90;;;;;;5079269;28;20024;-87
2023/11/07 07:30:00;;;;;;;5.43;3.50;;;10.90;99.90;;;;;;5095493;28;20475;-87
2023/11/07 07:32:28;;;;;;;6.35;3.83;;;10.90;99.90;;;;;;5071147;28;20037;-87
2023/11/07 07:34:54;;;;;;;9.05;3.63;;;11.00;99.90;;;;;;5075439;28;20024;-86
2023/11/07 07:37:20;;;;;;;7.05;3.55;;;10.90;99.90;;;;;;5078304;28;20028;-87
2023/11/07 07:39:49;;;;;;;8.02;3.70;;;10.90;99.90;;;;;;5096051;28;20031;-86
2023/11/07 07:42:17;;;;;;;6.82;3.60;;;11.00;99.90;;;;;;5094954;28;20047;-86
2023/11/07 07:44:43;;;;;;;7.07;3.83;;;11.00;99.90;;;;;;5095861;28;20081;-87
2023/11/07 07:47:12;;;;;;;6.03;3.50;;;11.00;99.90;;;;;;5094001;28;20086;-87
2023/11/07 07:49:40;;;;;;;4.97;3.25;;;11.00;99.90;;;;;;5077838;28;20459;-87
2023/11/07 07:52:09;;;;;;;8.25;4.30;;;11.00;99.90;;;;;;5081581;28;20024;-87
2023/11/07 07:54:37;;;;;;;7.75;3.67;;;11.00;99.90;;;;;;5085059;28;20359;-86
2023/11/07 07:57:08;;;;;;;6.00;3.53;;;11.00;99.90;;;;;;5095798;28;20406;-87
2023/11/07 07:59:35;;;;;;;5.30;3.60;;;11.00;99.90;;;;;;5074053;28;20036;-86
2023/11/07 08:02:01;;;;;;;4.13;3.35;;;11.00;99.90;;;;;;5091089;28;20044;-87
2023/11/07 08:04:31;;;;;;;5.95;3.45;;;11.00;99.90;;;;;;5094609;28;20024;-87
2023/11/07 08:06:57;;;;;;;6.38;3.30;;;11.10;99.90;;;;;;5094823;28;20017;-87
2023/11/07 08:09:24;;;;;;;5.10;3.60;;;11.00;99.90;;;;;;5094358;28;20028;-86
2023/11/07 08:11:53;;;;;;;8.15;3.17;;;11.00;99.90;;;;;;5094410;28;20028;-87
2023/11/07 08:14:20;;;;;;;6.25;3.22;;;11.10;99.90;;;;;;5094541;28;20039;-88
2023/11/07 08:16:45;;;;;;;6.63;3.92;;;11.10;99.90;;;;;;5082919;28;20024;-87
2023/11/07 08:19:12;;;;;;;7.07;2.92;;;11.10;99.90;;;;;;5089860;28;20027;-87
2023/11/07 08:21:41;;;;;;;4.95;3.47;;;11.10;99.90;;;;;;5092857;28;20096;-87
2023/11/07 08:24:08;;;;;;;5.90;3.22;;;11.10;99.90;;;;;;5097768;28;20018;-86
2023/11/07 08:26:37;;;;;;;6.85;3.83;;;11.10;99.90;;;;;;5105555;28;20008;-89
2023/11/07 08:29:06;;;;;;;7.25;3.10;;;11.10;99.90;;;;;;5126710;28;20054;-86
2023/11/07 08:31:40;;;;;;;5.05;3.20;;;11.10;99.90;;;;;;5087158;28;20032;-87
2023/11/07 08:34:09;;;;;;;5.90;2.67;;;11.10;99.90;;;;;;5096026;28;20066;-86
2023/11/07 08:36:39;;;;;;;5.90;3.20;;;11.10;99.90;;;;;;5077814;28;20050;-86
2023/11/07 08:39:12;;;;;;;5.65;3.15;;;11.10;99.90;;;;;;5095496;28;20119;-88
2023/11/07 08:41:37;;;;;;;4.60;3.15;;;11.10;99.90;;;;;;5095131;28;20039;-87
2023/11/07 08:44:08;;;;;;;3.53;3.03;;;11.20;99.90;;;;;;5056933;28;20020;-87
2023/11/07 08:46:33;;;;;;;4.53;3.07;;;11.20;99.90;;;;;;5075846;28;20086;-86
2023/11/07 08:48:59;;;;;;;4.90;3.00;;;11.20;99.90;;;;;;5093551;28;20042;-87
2023/11/07 08:51:24;;;;;;;4.10;2.80;;;11.20;99.90;;;;;;5076615;28;20032;-87
2023/11/07 08:53:50;;;;;;;4.50;2.60;;;11.20;99.90;;;;;;5093677;28;20035;-87
2023/11/07 08:56:16;;;;;;;4.82;3.00;;;11.20;99.90;;;;;;5093913;28;20035;-87
2023/11/07 08:58:41;;;;;;;4.32;2.78;;;11.30;99.90;;;;;;5094158;28;20063;-87
2023/11/07 09:01:10;;;;;;;6.00;2.40;;;11.30;99.90;;;;;;5084728;28;20032;-86
2023/11/07 09:03:36;;;;;;;6.05;2.83;;;11.30;99.90;;;;;;5065454;28;20032;-87
2023/11/07 09:06:02;;;;;;;5.28;2.65;;;11.30;99.90;;;;;;5073106;28;20103;-87
2023/11/07 09:08:27;;;;;;;3.53;2.30;;;11.30;99.90;;;;;;5062279;28;20115;-88
2023/11/07 09:10:54;;;;;;;5.32;2.50;;;11.40;99.90;;;;;;5093308;28;20811;-87
2023/11/07 09:13:20;;;;;;;5.35;2.65;;;11.40;99.90;;;;;;5093364;28;20490;-87
2023/11/07 09:15:46;;;;;;;2.75;2.05;;;11.40;99.90;;;;;;5080870;28;20032;-86
2023/11/07 09:18:12;;;;;;;4.63;2.60;;;11.40;99.90;;;;;;5074565;28;20478;-87
2023/11/07 09:20:37;;;;;;;3.72;2.50;;;11.40;99.90;;;;;;5056330;28;20032;-88
2023/11/07 09:23:04;;;;;;;3.90;2.30;;;11.30;99.90;;;;;;5066392;28;20043;-86
2023/11/07 09:25:30;;;;;;;4.13;2.22;;;11.40;99.90;;;;;;5094045;28;20066;-87
2023/11/07 09:27:56;;;;;;;3.92;2.50;;;11.40;99.90;;;;;;5094228;28;20087;-86
2023/11/07 09:30:22;;;;;;;3.72;2.20;;;11.40;99.90;;;;;;5092750;28;20024;-87
2023/11/07 09:32:48;;;;;;;2.58;2.25;;;11.50;99.90;;;;;;5092819;28;20092;-87
2023/11/07 09:35:16;;;;;;;2.95;2.17;;;11.50;99.90;;;;;;5093987;28;20119;-87
2023/11/07 09:37:43;;;;;;;5.35;2.15;;;11.60;99.90;;;;;;5093721;28;20455;-87
2023/11/07 09:40:12;;;;;;;4.18;2.40;;;11.60;99.90;;;;;;5092706;28;20031;-87
2023/11/07 09:42:42;;;;;;;3.83;2.10;;;11.60;99.90;;;;;;5093056;28;20039;-86
2023/11/07 09:45:18;;;;;;;4.07;2.30;;;11.60;99.90;;;;;;5093980;28;20099;-87
2023/11/07 09:47:48;;;;;;;4.10;2.55;;;11.70;99.90;;;;;;5076568;28;20031;-87
2023/11/07 09:50:24;;;;;;;4.78;2.67;;;11.70;99.90;;;;;;5090623;28;20052;-87
2023/11/07 09:52:51;;;;;;;6.40;2.25;;;11.70;99.90;;;;;;5092267;28;20036;-87
2023/11/07 09:55:19;;;;;;;6.38;2.60;;;11.70;99.90;;;;;;5105492;28;20022;-86
2023/11/07 09:58:01;;;;;;;3.58;2.22;;;11.70;99.90;;;;;;5118105;28;20027;-88
2023/11/07 10:00:30;;;;;;;4.10;2.40;;;11.70;99.90;;;;;;5117781;28;20012;-87
2023/11/07 10:02:58;;;;;;;5.63;2.55;;;11.80;99.90;;;;;;5117384;28;20103;-88
2023/11/07 10:05:25;;;;;;;4.63;2.47;;;11.80;99.90;;;;;;5076435;28;20025;-87
2023/11/07 10:07:51;;;;;;;4.85;2.65;;;11.80;99.90;;;;;;5072617;28;20032;-87
2023/11/07 10:10:18;;;;;;;6.13;2.42;;;11.80;99.90;;;;;;5078258;28;20030;-87
2023/11/07 10:12:45;;;;;;;4.03;2.38;;;11.80;99.90;;;;;;5092859;28;20065;-88
2023/11/07 10:15:19;;;;;;;3.95;2.20;;;11.90;99.90;;;;;;5092650;28;20032;-87
2023/11/07 10:18:04;;;;;;;4.53;2.70;;;11.90;99.90;;;;;;5088661;28;20036;-87
2023/11/07 10:20:34;;;;;;;3.95;2.13;;;12.00;99.90;;;;;;5092603;28;20028;-87
2023/11/07 10:23:00;;;;;;;3.60;2.28;;;12.00;99.90;;;;;;5091948;28;20025;-87
2023/11/07 10:25:27;;;;;;;2.88;2.10;;;12.00;99.90;;;;;;5075548;28;20031;-87
2023/11/07 10:28:03;;;;;;;3.70;2.10;;;12.00;99.90;;;;;;5092191;28;20035;-87
2023/11/07 10:30:44;;;;;;;3.08;1.70;;;12.10;99.90;;;;;;5089172;28;20017;-86
2023/11/07 10:33:12;;;;;;;5.75;2.15;;;12.20;99.90;;;;;;5071962;28;20472;-88
2023/11/07 10:35:55;;;;;;;3.03;1.98;;;12.20;99.90;;;;;;5074789;28;20081;-87
2023/11/07 10:38:24;;;;;;;3.20;1.50;;;12.30;99.90;;;;;;5096342;28;20480;-87
2023/11/07 10:40:50;;;;;;;2.15;1.73;;;12.30;99.90;;;;;;5096312;28;20020;-88
2023/11/07 10:43:35;;;;;;;3.00;1.60;;;12.40;99.90;;;;;;5088465;28;20127;-87
2023/11/07 10:46:02;;;;;;;4.55;1.80;;;12.50;99.90;;;;;;5075331;28;20047;-87
2023/11/07 10:48:39;;;;;;;3.22;1.98;;;12.50;99.90;;;;;;5059235;28;20533;-87
2023/11/07 10:51:12;;;;;;;4.55;1.90;;;12.50;99.90;;;;;;5088415;28;20384;-87
2023/11/07 10:53:41;;;;;;;3.92;1.60;;;12.50;99.90;;;;;;5073360;28;20032;-86
2023/11/07 10:56:14;;;;;;;5.20;1.95;;;12.50;99.90;;;;;;5059202;28;20027;-87
2023/11/07 10:59:00;;;;;;;2.58;1.50;;;12.50;99.90;;;;;;5086585;28;20012;-87
2023/11/07 11:01:27;;;;;;;2.88;1.70;;;12.60;99.90;;;;;;5097285;28;20028;-88
2023/11/07 11:03:54;;;;;;;3.05;1.67;;;12.60;99.90;;;;;;5095992;28;20059;-88
2023/11/07 11:06:23;;;;;;;3.80;1.77;;;12.60;99.90;;;;;;5097394;28;20028;-87
2023/11/07 11:09:06;;;;;;;3.92;1.67;;;12.50;99.90;;;;;;5090949;28;20055;-88
2023/11/07 11:11:33;;;;;;;3.72;1.55;;;12.50;99.90;;;;;;5086139;28;20024;-87
2023/11/07 11:13:59;;;;;;;3.10;1.63;;;12.60;99.90;;;;;;5096889;28;20028;-88
2023/11/07 11:16:29;;;;;;;3.75;1.70;;;12.60;99.90;;;;;;5096951;28;20027;-87
2023/11/07 11:19:10;;;;;;;3.72;1.48;;;12.70;99.90;;;;;;5079229;28;20030;-88
2023/11/07 11:21:49;;;;;;;4.25;2.10;;;12.70;99.90;;;;;;5092471;28;20048;-88
2023/11/07 11:24:28;;;;;;;3.55;1.30;;;12.80;99.90;;;;;;5092673;28;20541;-88
2023/11/07 11:27:03;;;;;;;4.55;1.90;;;12.90;99.90;;;;;;5080517;28;20024;-87
2023/11/07 11:29:29;;;;;;;2.72;1.40;;;12.90;99.90;;;;;;5096548;28;20031;-88
2023/11/07 11:31:59;;;;;;;2.67;1.33;;;13.00;99.90;;;;;;5111230;28;20027;-88
2023/11/07 11:34:29;;;;;;;2.83;1.23;;;13.00;99.90;;;;;;5100260;28;20016;-87
2023/11/07 11:37:02;;;;;;;2.58;1.13;;;13.10;99.90;;;;;;5099740;28;20004;-89
2023/11/07 11:39:31;;;;;;;2.33;1.25;;;13.10;99.90;;;;;;5106881;28;20028;-89
2023/11/07 11:42:11;;;;;;;;;;;;;;;;;;;;;
2023/11/07 11:45:03;;;;;;;2.90;1.40;;;13.30;99.90;;;;;;5077628;28;20502;-87
2023/11/07 11:47:48;;;;;;;2.83;1.30;;;13.30;99.90;;;;;;5092788;28;20369;-88
2023/11/07 11:50:15;;;;;;;4.38;1.55;;;13.30;99.90;;;;;;5095439;28;20196;-87
2023/11/07 11:52:41;;;;;;;3.55;1.42;;;13.40;99.90;;;;;;5095067;28;20039;-87
2023/11/07 11:55:10;;;;;;;3.78;1.40;;;13.40;99.90;;;;;;5077926;28;20028;-87
2023/11/07 11:58:16;;;;;;;2.03;1.00;;;13.40;99.90;;;;;;5091895;28;20123;-87
2023/11/07 12:00:44;;;;;;;5.38;1.48;;;13.40;99.90;;;;;;5091550;28;20197;-87
2023/11/07 12:03:18;;;;;;;6.13;1.23;;;13.40;99.90;;;;;;5090321;28;20028;-87
2023/11/07 12:06:03;;;;;;;2.20;1.27;;;13.30;99.90;;;;;;5063615;28;20032;-88
2023/11/07 12:08:41;;;;;;;4.18;1.20;;;13.40;99.90;;;;;;5094874;28;20016;-88
2023/11/07 12:11:07;;;;;;;3.33;1.50;;;13.40;99.90;;;;;;5094346;28;20023;-87
2023/11/07 12:13:33;;;;;;;3.92;1.27;;;13.40;99.90;;;;;;5095072;28;20039;-87
2023/11/07 12:16:18;;;;;;;2.75;1.35;;;13.40;99.90;;;;;;5073943;28;20029;-87
2023/11/07 12:18:50;;;;;;;2.60;1.30;;;13.40;99.90;;;;;;5088952;28;20040;-88
2023/11/07 12:21:26;;;;;;;2.92;1.50;;;13.40;99.90;;;;;;5090814;28;20440;-87
2023/11/07 12:23:53;;;;;;;2.92;1.30;;;13.40;99.90;;;;;;5074746;28;20169;-87
2023/11/07 12:26:20;;;;;;;3.95;1.33;;;13.40;99.90;;;;;;5075035;28;20150;-87
2023/11/07 12:28:46;;;;;;;2.55;1.10;;;13.40;99.90;;;;;;5057492;28;20031;-88
2023/11/07 12:31:12;;;;;;;2.97;1.33;;;13.40;99.90;;;;;;5057107;28;20021;-87
2023/11/07 12:33:44;;;;;;;2.72;1.20;;;13.40;99.90;;;;;;5068544;28;20028;-88
2023/11/07 12:36:13;;;;;;;3.75;1.55;;;13.40;99.90;;;;;;5093788;28;20461;-87
2023/11/07 12:38:44;;;;;;;3.55;1.45;;;13.40;99.90;;;;;;5082530;28;20032;-87
2023/11/07 12:41:12;;;;;;;1.90;1.10;;;13.40;99.90;;;;;;5073605;28;20017;-88
2023/11/07 12:43:40;;;;;;;1.85;1.17;;;13.30;99.90;;;;;;5073469;28;20035;-88
2023/11/07 12:46:14;;;;;;;3.05;1.15;;;13.30;99.90;;;;;;5093555;28;20032;-88
2023/11/07 12:48:40;;;;;;;2.33;1.08;;;13.30;99.90;;;;;;5094003;28;20119;-87
2023/11/07 12:51:08;;;;;;;3.42;1.35;;;13.30;99.90;;;;;;5076697;28;20517;-88
2023/11/07 12:53:47;;;;;;;3.03;1.30;;;13.20;99.80;;;;;;5088328;28;20024;-87